sensor_id;sensor_type;location;lat;lon;timestamp;P1;durP1;ratioP1;P2;durP2;ratioP2
21802;SDS011;18591;47.080;22.214;2022-12-10T00:01:57;12.98;;;5.00;;
21802;SDS011;18591;47.080;22.214;2022-12-10T00:03:59;7.65;;;3.42;;
21802;SDS011;18591;47.080;22.214;2022-12-10T00:06:03;11.18;;;3.35;;
21802;SDS011;18591;47.080;22.214;2022-12-10T00:08:06;8.88;;;3.30;;
21802;SDS011;18591;47.080;22.214;2022-12-10T00:10:08;11.10;;;4.50;;
21802;SDS011;18591;47.080;22.214;2022-12-10T00:12:11;10.02;;;3.38;;
21802;SDS011;18591;47.080;22.214;2022-12-10T00:14:13;8.70;;;3.00;;
21802;SDS011;18591;47.080;22.214;2022-12-10T00:16:17;7.72;;;3.03;;
21802;SDS011;18591;47.080;22.214;2022-12-10T00:18:20;19.20;;;4.57;;
21802;SDS011;18591;47.080;22.214;2022-12-10T00:20:26;9.32;;;4.15;;
21802;SDS011;18591;47.080;22.214;2022-12-10T00:22:27;9.88;;;4.50;;
21802;SDS011;18591;47.080;22.214;2022-12-10T00:24:29;10.55;;;3.75;;
21802;SDS011;18591;47.080;22.214;2022-12-10T00:26:34;11.70;;;5.25;;
21802;SDS011;18591;47.080;22.214;2022-12-10T00:28:38;11.43;;;3.33;;
21802;SDS011;18591;47.080;22.214;2022-12-10T00:30:43;10.02;;;4.10;;
21802;SDS011;18591;47.080;22.214;2022-12-10T00:32:46;11.23;;;3.83;;
21802;SDS011;18591;47.080;22.214;2022-12-10T00:34:48;18.15;;;4.32;;
21802;SDS011;18591;47.080;22.214;2022-12-10T00:36:50;14.50;;;4.80;;
21802;SDS011;18591;47.080;22.214;2022-12-10T00:38:52;11.35;;;3.90;;
21802;SDS011;18591;47.080;22.214;2022-12-10T00:40:56;16.02;;;3.78;;
21802;SDS011;18591;47.080;22.214;2022-12-10T00:42:58;15.05;;;3.92;;
21802;SDS011;18591;47.080;22.214;2022-12-10T00:45:00;17.58;;;4.00;;
21802;SDS011;18591;47.080;22.214;2022-12-10T00:47:02;16.65;;;4.80;;
21802;SDS011;18591;47.080;22.214;2022-12-10T00:49:04;9.77;;;3.88;;
21802;SDS011;18591;47.080;22.214;2022-12-10T00:51:08;11.75;;;4.57;;
21802;SDS011;18591;47.080;22.214;2022-12-10T00:53:12;13.77;;;4.18;;
21802;SDS011;18591;47.080;22.214;2022-12-10T00:55:14;10.85;;;3.60;;
21802;SDS011;18591;47.080;22.214;2022-12-10T00:57:16;11.48;;;3.97;;
21802;SDS011;18591;47.080;22.214;2022-12-10T00:59:18;10.95;;;3.72;;
21802;SDS011;18591;47.080;22.214;2022-12-10T01:03:30;11.02;;;3.28;;
21802;SDS011;18591;47.080;22.214;2022-12-10T01:05:32;12.25;;;3.47;;
21802;SDS011;18591;47.080;22.214;2022-12-10T01:07:34;9.20;;;3.22;;
21802;SDS011;18591;47.080;22.214;2022-12-10T01:09:36;6.85;;;3.10;;
21802;SDS011;18591;47.080;22.214;2022-12-10T01:11:39;10.43;;;4.32;;
21802;SDS011;18591;47.080;22.214;2022-12-10T01:13:43;11.60;;;4.43;;
21802;SDS011;18591;47.080;22.214;2022-12-10T01:15:46;8.13;;;2.90;;
21802;SDS011;18591;47.080;22.214;2022-12-10T01:17:48;10.68;;;4.30;;
21802;SDS011;18591;47.080;22.214;2022-12-10T01:19:50;10.27;;;3.60;;
21802;SDS011;18591;47.080;22.214;2022-12-10T01:21:55;12.88;;;4.22;;
21802;SDS011;18591;47.080;22.214;2022-12-10T01:23:57;9.98;;;4.05;;
21802;SDS011;18591;47.080;22.214;2022-12-10T01:26:03;15.10;;;4.35;;
21802;SDS011;18591;47.080;22.214;2022-12-10T01:28:11;13.55;;;7.25;;
21802;SDS011;18591;47.080;22.214;2022-12-10T01:30:13;14.10;;;4.35;;
21802;SDS011;18591;47.080;22.214;2022-12-10T01:32:18;9.70;;;4.50;;
21802;SDS011;18591;47.080;22.214;2022-12-10T01:34:20;11.45;;;3.83;;
21802;SDS011;18591;47.080;22.214;2022-12-10T01:36:24;10.60;;;3.83;;
21802;SDS011;18591;47.080;22.214;2022-12-10T01:38:31;8.35;;;3.95;;
21802;SDS011;18591;47.080;22.214;2022-12-10T01:40:36;13.02;;;4.38;;
21802;SDS011;18591;47.080;22.214;2022-12-10T01:42:39;9.52;;;3.85;;
21802;SDS011;18591;47.080;22.214;2022-12-10T01:46:48;11.02;;;3.78;;
21802;SDS011;18591;47.080;22.214;2022-12-10T01:48:51;10.75;;;3.95;;
21802;SDS011;18591;47.080;22.214;2022-12-10T01:50:54;11.68;;;3.95;;
21802;SDS011;18591;47.080;22.214;2022-12-10T01:52:56;12.38;;;4.07;;
21802;SDS011;18591;47.080;22.214;2022-12-10T01:55:01;13.10;;;3.47;;
21802;SDS011;18591;47.080;22.214;2022-12-10T01:57:09;10.90;;;3.60;;
21802;SDS011;18591;47.080;22.214;2022-12-10T01:59:15;10.35;;;2.90;;
21802;SDS011;18591;47.080;22.214;2022-12-10T02:06:07;10.00;;;2.90;;
21802;SDS011;18591;47.080;22.214;2022-12-10T02:15:56;9.43;;;3.60;;
21802;SDS011;18591;47.080;22.214;2022-12-10T02:18:07;9.88;;;3.70;;
21802;SDS011;18591;47.080;22.214;2022-12-10T02:20:24;10.57;;;3.78;;
21802;SDS011;18591;47.080;22.214;2022-12-10T02:22:33;7.13;;;3.90;;
21802;SDS011;18591;47.080;22.214;2022-12-10T02:24:41;8.25;;;3.03;;
21802;SDS011;18591;47.080;22.214;2022-12-10T02:26:51;9.57;;;3.15;;
21802;SDS011;18591;47.080;22.214;2022-12-10T02:31:26;9.18;;;3.22;;
21802;SDS011;18591;47.080;22.214;2022-12-10T02:33:31;7.32;;;2.80;;
21802;SDS011;18591;47.080;22.214;2022-12-10T02:35:37;5.30;;;2.55;;
21802;SDS011;18591;47.080;22.214;2022-12-10T02:37:50;7.15;;;2.90;;
21802;SDS011;18591;47.080;22.214;2022-12-10T02:39:58;8.13;;;3.00;;
21802;SDS011;18591;47.080;22.214;2022-12-10T02:42:07;6.13;;;2.80;;
21802;SDS011;18591;47.080;22.214;2022-12-10T02:44:16;5.80;;;2.65;;
21802;SDS011;18591;47.080;22.214;2022-12-10T02:46:21;9.77;;;2.78;;
21802;SDS011;18591;47.080;22.214;2022-12-10T02:48:26;6.18;;;2.50;;
21802;SDS011;18591;47.080;22.214;2022-12-10T02:50:30;5.95;;;2.90;;
21802;SDS011;18591;47.080;22.214;2022-12-10T02:52:32;4.13;;;2.08;;
21802;SDS011;18591;47.080;22.214;2022-12-10T02:54:36;4.13;;;2.45;;
21802;SDS011;18591;47.080;22.214;2022-12-10T02:56:43;7.63;;;2.80;;
21802;SDS011;18591;47.080;22.214;2022-12-10T02:59:06;8.18;;;2.53;;
21802;SDS011;18591;47.080;22.214;2022-12-10T03:01:12;7.60;;;2.83;;
21802;SDS011;18591;47.080;22.214;2022-12-10T03:07:54;4.88;;;2.20;;
21802;SDS011;18591;47.080;22.214;2022-12-10T03:10:02;6.28;;;2.70;;
21802;SDS011;18591;47.080;22.214;2022-12-10T03:12:27;5.40;;;2.05;;
21802;SDS011;18591;47.080;22.214;2022-12-10T03:14:33;3.13;;;1.90;;
21802;SDS011;18591;47.080;22.214;2022-12-10T03:16:40;7.55;;;2.45;;
21802;SDS011;18591;47.080;22.214;2022-12-10T03:18:46;8.32;;;2.53;;
21802;SDS011;18591;47.080;22.214;2022-12-10T03:20:51;3.42;;;2.28;;
21802;SDS011;18591;47.080;22.214;2022-12-10T03:22:56;4.60;;;2.00;;
21802;SDS011;18591;47.080;22.214;2022-12-10T03:24:58;6.03;;;2.20;;
21802;SDS011;18591;47.080;22.214;2022-12-10T03:27:03;4.70;;;2.10;;
21802;SDS011;18591;47.080;22.214;2022-12-10T03:29:23;6.85;;;1.95;;
21802;SDS011;18591;47.080;22.214;2022-12-10T03:31:29;9.70;;;2.30;;
21802;SDS011;18591;47.080;22.214;2022-12-10T03:33:33;6.38;;;2.17;;
21802;SDS011;18591;47.080;22.214;2022-12-10T03:35:35;9.43;;;2.38;;
21802;SDS011;18591;47.080;22.214;2022-12-10T03:37:39;7.38;;;2.38;;
21802;SDS011;18591;47.080;22.214;2022-12-10T03:39:41;5.72;;;2.28;;
21802;SDS011;18591;47.080;22.214;2022-12-10T03:41:44;7.70;;;2.83;;
21802;SDS011;18591;47.080;22.214;2022-12-10T03:43:53;5.20;;;2.10;;
21802;SDS011;18591;47.080;22.214;2022-12-10T03:45:57;9.80;;;2.60;;
21802;SDS011;18591;47.080;22.214;2022-12-10T03:47:59;6.05;;;2.22;;
21802;SDS011;18591;47.080;22.214;2022-12-10T03:50:01;5.28;;;1.90;;
21802;SDS011;18591;47.080;22.214;2022-12-10T03:52:03;4.93;;;2.05;;
21802;SDS011;18591;47.080;22.214;2022-12-10T03:54:06;3.60;;;1.95;;
21802;SDS011;18591;47.080;22.214;2022-12-10T03:56:10;5.40;;;2.42;;
21802;SDS011;18591;47.080;22.214;2022-12-10T03:58:12;6.05;;;2.55;;
21802;SDS011;18591;47.080;22.214;2022-12-10T04:00:20;6.68;;;1.73;;
21802;SDS011;18591;47.080;22.214;2022-12-10T04:02:22;3.90;;;2.20;;
21802;SDS011;18591;47.080;22.214;2022-12-10T04:04:24;6.20;;;2.30;;
21802;SDS011;18591;47.080;22.214;2022-12-10T04:06:27;4.32;;;1.98;;
21802;SDS011;18591;47.080;22.214;2022-12-10T04:08:29;4.30;;;1.80;;
21802;SDS011;18591;47.080;22.214;2022-12-10T04:10:34;6.63;;;2.10;;
21802;SDS011;18591;47.080;22.214;2022-12-10T04:12:38;7.38;;;1.98;;
21802;SDS011;18591;47.080;22.214;2022-12-10T04:14:40;7.18;;;2.20;;
21802;SDS011;18591;47.080;22.214;2022-12-10T04:17:00;3.95;;;2.35;;
21802;SDS011;18591;47.080;22.214;2022-12-10T04:19:04;3.78;;;2.28;;
21802;SDS011;18591;47.080;22.214;2022-12-10T04:21:07;4.82;;;2.67;;
21802;SDS011;18591;47.080;22.214;2022-12-10T04:23:28;9.55;;;4.65;;
21802;SDS011;18591;47.080;22.214;2022-12-10T04:25:48;11.40;;;6.03;;
21802;SDS011;18591;47.080;22.214;2022-12-10T04:28:09;13.65;;;6.93;;
21802;SDS011;18591;47.080;22.214;2022-12-10T04:30:11;15.02;;;9.25;;
21802;SDS011;18591;47.080;22.214;2022-12-10T04:32:14;20.00;;;10.45;;
21802;SDS011;18591;47.080;22.214;2022-12-10T04:34:17;12.60;;;8.75;;
21802;SDS011;18591;47.080;22.214;2022-12-10T04:38:47;16.90;;;9.10;;
21802;SDS011;18591;47.080;22.214;2022-12-10T04:40:49;10.85;;;5.65;;
21802;SDS011;18591;47.080;22.214;2022-12-10T04:42:51;13.35;;;7.47;;
21802;SDS011;18591;47.080;22.214;2022-12-10T04:44:53;25.55;;;16.30;;
21802;SDS011;18591;47.080;22.214;2022-12-10T04:46:56;19.38;;;9.13;;
21802;SDS011;18591;47.080;22.214;2022-12-10T04:48:58;16.45;;;7.88;;
21802;SDS011;18591;47.080;22.214;2022-12-10T04:51:00;13.40;;;9.45;;
21802;SDS011;18591;47.080;22.214;2022-12-10T04:53:03;14.70;;;8.30;;
21802;SDS011;18591;47.080;22.214;2022-12-10T04:58:01;7.25;;;4.13;;
21802;SDS011;18591;47.080;22.214;2022-12-10T05:00:03;5.82;;;3.35;;
21802;SDS011;18591;47.080;22.214;2022-12-10T05:02:06;6.85;;;3.20;;
21802;SDS011;18591;47.080;22.214;2022-12-10T05:04:10;4.60;;;3.00;;
21802;SDS011;18591;47.080;22.214;2022-12-10T05:06:15;7.78;;;3.50;;
21802;SDS011;18591;47.080;22.214;2022-12-10T05:08:18;6.57;;;3.25;;
21802;SDS011;18591;47.080;22.214;2022-12-10T05:10:20;5.80;;;3.17;;
21802;SDS011;18591;47.080;22.214;2022-12-10T05:12:22;7.47;;;4.03;;
21802;SDS011;18591;47.080;22.214;2022-12-10T05:14:27;6.95;;;3.33;;
21802;SDS011;18591;47.080;22.214;2022-12-10T05:16:29;7.80;;;3.67;;
21802;SDS011;18591;47.080;22.214;2022-12-10T05:18:33;7.32;;;3.08;;
21802;SDS011;18591;47.080;22.214;2022-12-10T05:20:35;6.35;;;3.88;;
21802;SDS011;18591;47.080;22.214;2022-12-10T05:22:37;6.85;;;4.80;;
21802;SDS011;18591;47.080;22.214;2022-12-10T05:24:59;10.27;;;5.18;;
21802;SDS011;18591;47.080;22.214;2022-12-10T05:27:01;8.65;;;4.78;;
21802;SDS011;18591;47.080;22.214;2022-12-10T05:29:03;8.98;;;4.90;;
21802;SDS011;18591;47.080;22.214;2022-12-10T05:31:10;6.95;;;4.28;;
21802;SDS011;18591;47.080;22.214;2022-12-10T05:33:17;7.28;;;3.92;;
21802;SDS011;18591;47.080;22.214;2022-12-10T05:35:19;7.70;;;4.07;;
21802;SDS011;18591;47.080;22.214;2022-12-10T05:37:21;7.60;;;5.05;;
21802;SDS011;18591;47.080;22.214;2022-12-10T05:39:23;11.25;;;4.93;;
21802;SDS011;18591;47.080;22.214;2022-12-10T05:41:26;5.88;;;5.25;;
21802;SDS011;18591;47.080;22.214;2022-12-10T05:43:30;8.80;;;5.25;;
21802;SDS011;18591;47.080;22.214;2022-12-10T05:45:32;9.23;;;5.07;;
21802;SDS011;18591;47.080;22.214;2022-12-10T05:47:34;9.07;;;5.45;;
21802;SDS011;18591;47.080;22.214;2022-12-10T05:49:37;88.60;;;54.53;;
21802;SDS011;18591;47.080;22.214;2022-12-10T05:51:39;171.32;;;103.88;;
21802;SDS011;18591;47.080;22.214;2022-12-10T05:53:41;230.57;;;127.75;;
21802;SDS011;18591;47.080;22.214;2022-12-10T05:55:44;297.02;;;162.15;;
21802;SDS011;18591;47.080;22.214;2022-12-10T05:57:47;284.27;;;158.68;;
21802;SDS011;18591;47.080;22.214;2022-12-10T05:59:49;198.48;;;111.72;;
21802;SDS011;18591;47.080;22.214;2022-12-10T06:01:51;121.55;;;71.95;;
21802;SDS011;18591;47.080;22.214;2022-12-10T06:03:53;61.58;;;38.00;;
21802;SDS011;18591;47.080;22.214;2022-12-10T06:05:55;41.15;;;24.13;;
21802;SDS011;18591;47.080;22.214;2022-12-10T06:07:58;25.13;;;16.40;;
21802;SDS011;18591;47.080;22.214;2022-12-10T06:10:00;42.42;;;26.10;;
21802;SDS011;18591;47.080;22.214;2022-12-10T06:12:02;31.45;;;20.42;;
21802;SDS011;18591;47.080;22.214;2022-12-10T06:14:04;24.48;;;16.17;;
21802;SDS011;18591;47.080;22.214;2022-12-10T06:16:07;18.52;;;13.32;;
21802;SDS011;18591;47.080;22.214;2022-12-10T06:18:11;39.00;;;26.58;;
21802;SDS011;18591;47.080;22.214;2022-12-10T06:20:13;46.88;;;33.03;;
21802;SDS011;18591;47.080;22.214;2022-12-10T06:22:15;54.10;;;39.38;;
21802;SDS011;18591;47.080;22.214;2022-12-10T06:24:17;32.42;;;26.58;;
21802;SDS011;18591;47.080;22.214;2022-12-10T06:26:23;44.45;;;34.65;;
21802;SDS011;18591;47.080;22.214;2022-12-10T06:28:27;48.03;;;33.58;;
21802;SDS011;18591;47.080;22.214;2022-12-10T06:30:31;102.97;;;70.45;;
21802;SDS011;18591;47.080;22.214;2022-12-10T06:32:33;81.63;;;57.05;;
21802;SDS011;18591;47.080;22.214;2022-12-10T06:34:35;76.38;;;56.42;;
21802;SDS011;18591;47.080;22.214;2022-12-10T06:36:43;59.63;;;43.05;;
21802;SDS011;18591;47.080;22.214;2022-12-10T06:38:45;55.22;;;38.65;;
21802;SDS011;18591;47.080;22.214;2022-12-10T06:40:49;31.67;;;24.23;;
21802;SDS011;18591;47.080;22.214;2022-12-10T06:42:51;24.25;;;19.20;;
21802;SDS011;18591;47.080;22.214;2022-12-10T06:44:54;28.83;;;23.00;;
21802;SDS011;18591;47.080;22.214;2022-12-10T06:46:56;26.40;;;19.05;;
21802;SDS011;18591;47.080;22.214;2022-12-10T06:48:58;23.67;;;15.35;;
21802;SDS011;18591;47.080;22.214;2022-12-10T06:51:01;16.92;;;10.77;;
21802;SDS011;18591;47.080;22.214;2022-12-10T06:53:04;15.30;;;8.27;;
21802;SDS011;18591;47.080;22.214;2022-12-10T06:55:07;18.92;;;9.50;;
21802;SDS011;18591;47.080;22.214;2022-12-10T06:57:09;20.17;;;11.75;;
21802;SDS011;18591;47.080;22.214;2022-12-10T06:59:11;13.80;;;8.25;;
21802;SDS011;18591;47.080;22.214;2022-12-10T07:01:14;17.70;;;10.63;;
21802;SDS011;18591;47.080;22.214;2022-12-10T07:03:23;22.67;;;12.25;;
21802;SDS011;18591;47.080;22.214;2022-12-10T07:05:26;19.38;;;11.85;;
21802;SDS011;18591;47.080;22.214;2022-12-10T07:07:28;17.40;;;8.00;;
21802;SDS011;18591;47.080;22.214;2022-12-10T07:09:30;16.83;;;10.43;;
21802;SDS011;18591;47.080;22.214;2022-12-10T07:11:33;20.73;;;10.57;;
21802;SDS011;18591;47.080;22.214;2022-12-10T07:13:35;15.10;;;9.63;;
21802;SDS011;18591;47.080;22.214;2022-12-10T07:15:38;12.38;;;8.38;;
21802;SDS011;18591;47.080;22.214;2022-12-10T07:17:40;14.38;;;9.43;;
21802;SDS011;18591;47.080;22.214;2022-12-10T07:19:42;28.42;;;17.23;;
21802;SDS011;18591;47.080;22.214;2022-12-10T07:21:45;19.10;;;12.93;;
21802;SDS011;18591;47.080;22.214;2022-12-10T07:23:49;16.85;;;10.20;;
21802;SDS011;18591;47.080;22.214;2022-12-10T07:25:54;15.20;;;10.45;;
21802;SDS011;18591;47.080;22.214;2022-12-10T07:27:56;25.80;;;16.65;;
21802;SDS011;18591;47.080;22.214;2022-12-10T07:29:58;18.13;;;11.63;;
21802;SDS011;18591;47.080;22.214;2022-12-10T07:32:01;16.17;;;10.82;;
21802;SDS011;18591;47.080;22.214;2022-12-10T07:34:03;24.13;;;16.38;;
21802;SDS011;18591;47.080;22.214;2022-12-10T07:36:05;23.45;;;16.77;;
21802;SDS011;18591;47.080;22.214;2022-12-10T07:38:09;18.75;;;14.20;;
21802;SDS011;18591;47.080;22.214;2022-12-10T07:40:11;15.10;;;10.88;;
21802;SDS011;18591;47.080;22.214;2022-12-10T07:42:13;19.35;;;14.75;;
21802;SDS011;18591;47.080;22.214;2022-12-10T07:44:15;25.38;;;17.92;;
21802;SDS011;18591;47.080;22.214;2022-12-10T07:46:19;29.23;;;19.88;;
21802;SDS011;18591;47.080;22.214;2022-12-10T07:48:24;31.23;;;22.50;;
21802;SDS011;18591;47.080;22.214;2022-12-10T07:50:26;74.07;;;50.40;;
21802;SDS011;18591;47.080;22.214;2022-12-10T07:52:28;65.13;;;44.17;;
21802;SDS011;18591;47.080;22.214;2022-12-10T07:54:33;42.85;;;29.75;;
21802;SDS011;18591;47.080;22.214;2022-12-10T07:56:37;34.65;;;24.85;;
21802;SDS011;18591;47.080;22.214;2022-12-10T07:58:43;69.20;;;47.25;;
21802;SDS011;18591;47.080;22.214;2022-12-10T08:00:46;52.92;;;36.83;;
21802;SDS011;18591;47.080;22.214;2022-12-10T08:02:49;50.42;;;35.70;;
21802;SDS011;18591;47.080;22.214;2022-12-10T08:04:51;61.63;;;43.30;;
21802;SDS011;18591;47.080;22.214;2022-12-10T08:06:54;42.58;;;30.80;;
21802;SDS011;18591;47.080;22.214;2022-12-10T08:08:57;32.25;;;25.15;;
21802;SDS011;18591;47.080;22.214;2022-12-10T08:11:01;64.15;;;42.92;;
21802;SDS011;18591;47.080;22.214;2022-12-10T08:13:04;80.72;;;51.65;;
21802;SDS011;18591;47.080;22.214;2022-12-10T08:15:07;68.13;;;47.03;;
21802;SDS011;18591;47.080;22.214;2022-12-10T08:17:09;54.00;;;37.40;;
21802;SDS011;18591;47.080;22.214;2022-12-10T08:19:11;57.72;;;39.47;;
21802;SDS011;18591;47.080;22.214;2022-12-10T08:21:22;48.47;;;33.78;;
21802;SDS011;18591;47.080;22.214;2022-12-10T08:23:25;40.65;;;27.55;;
21802;SDS011;18591;47.080;22.214;2022-12-10T08:25:29;32.33;;;24.20;;
21802;SDS011;18591;47.080;22.214;2022-12-10T08:27:37;49.55;;;36.55;;
21802;SDS011;18591;47.080;22.214;2022-12-10T08:29:40;60.47;;;42.13;;
21802;SDS011;18591;47.080;22.214;2022-12-10T08:31:41;66.50;;;47.85;;
21802;SDS011;18591;47.080;22.214;2022-12-10T08:33:46;56.97;;;42.00;;
21802;SDS011;18591;47.080;22.214;2022-12-10T08:35:48;88.68;;;59.00;;
21802;SDS011;18591;47.080;22.214;2022-12-10T08:37:51;71.63;;;48.10;;
21802;SDS011;18591;47.080;22.214;2022-12-10T08:39:53;50.53;;;33.08;;
21802;SDS011;18591;47.080;22.214;2022-12-10T08:41:55;53.25;;;37.30;;
21802;SDS011;18591;47.080;22.214;2022-12-10T08:43:57;46.35;;;32.88;;
21802;SDS011;18591;47.080;22.214;2022-12-10T08:45:59;43.30;;;29.25;;
21802;SDS011;18591;47.080;22.214;2022-12-10T08:48:02;44.20;;;29.85;;
21802;SDS011;18591;47.080;22.214;2022-12-10T08:50:04;33.33;;;23.52;;
21802;SDS011;18591;47.080;22.214;2022-12-10T08:52:07;26.55;;;16.48;;
21802;SDS011;18591;47.080;22.214;2022-12-10T08:54:09;20.75;;;12.38;;
21802;SDS011;18591;47.080;22.214;2022-12-10T08:56:11;15.60;;;10.05;;
21802;SDS011;18591;47.080;22.214;2022-12-10T08:58:14;16.20;;;9.57;;
21802;SDS011;18591;47.080;22.214;2022-12-10T09:00:16;18.30;;;9.15;;
21802;SDS011;18591;47.080;22.214;2022-12-10T09:02:20;12.65;;;8.48;;
21802;SDS011;18591;47.080;22.214;2022-12-10T09:04:22;15.30;;;7.82;;
21802;SDS011;18591;47.080;22.214;2022-12-10T09:06:24;11.63;;;6.80;;
21802;SDS011;18591;47.080;22.214;2022-12-10T09:08:27;10.57;;;6.55;;
21802;SDS011;18591;47.080;22.214;2022-12-10T09:10:29;16.30;;;7.40;;
21802;SDS011;18591;47.080;22.214;2022-12-10T09:12:34;11.73;;;7.88;;
21802;SDS011;18591;47.080;22.214;2022-12-10T09:14:37;11.75;;;7.72;;
21802;SDS011;18591;47.080;22.214;2022-12-10T09:16:40;11.65;;;7.68;;
21802;SDS011;18591;47.080;22.214;2022-12-10T09:18:42;12.55;;;7.72;;
21802;SDS011;18591;47.080;22.214;2022-12-10T09:20:44;11.68;;;6.85;;
21802;SDS011;18591;47.080;22.214;2022-12-10T09:22:46;9.10;;;6.78;;
21802;SDS011;18591;47.080;22.214;2022-12-10T09:24:48;11.70;;;7.25;;
21802;SDS011;18591;47.080;22.214;2022-12-10T09:26:50;10.25;;;7.75;;
21802;SDS011;18591;47.080;22.214;2022-12-10T09:28:52;10.82;;;6.88;;
21802;SDS011;18591;47.080;22.214;2022-12-10T09:30:57;12.57;;;8.48;;
21802;SDS011;18591;47.080;22.214;2022-12-10T09:33:00;26.10;;;15.05;;
21802;SDS011;18591;47.080;22.214;2022-12-10T09:35:02;26.67;;;15.95;;
21802;SDS011;18591;47.080;22.214;2022-12-10T09:37:06;24.90;;;16.05;;
21802;SDS011;18591;47.080;22.214;2022-12-10T09:39:08;31.00;;;18.40;;
21802;SDS011;18591;47.080;22.214;2022-12-10T09:43:45;35.22;;;24.30;;
21802;SDS011;18591;47.080;22.214;2022-12-10T09:46:08;39.03;;;23.08;;
21802;SDS011;18591;47.080;22.214;2022-12-10T09:48:39;35.78;;;21.13;;
21802;SDS011;18591;47.080;22.214;2022-12-10T09:50:53;30.08;;;19.02;;
21802;SDS011;18591;47.080;22.214;2022-12-10T09:53:01;33.70;;;21.83;;
21802;SDS011;18591;47.080;22.214;2022-12-10T09:55:10;32.70;;;21.42;;
21802;SDS011;18591;47.080;22.214;2022-12-10T09:57:50;29.70;;;21.20;;
21802;SDS011;18591;47.080;22.214;2022-12-10T09:59:48;31.80;;;22.60;;
21802;SDS011;18591;47.080;22.214;2022-12-10T10:02:00;30.08;;;21.17;;
21802;SDS011;18591;47.080;22.214;2022-12-10T10:04:30;29.77;;;21.50;;
21802;SDS011;18591;47.080;22.214;2022-12-10T10:06:32;24.45;;;16.45;;
21802;SDS011;18591;47.080;22.214;2022-12-10T10:08:40;21.02;;;13.68;;
21802;SDS011;18591;47.080;22.214;2022-12-10T10:10:45;18.80;;;14.10;;
21802;SDS011;18591;47.080;22.214;2022-12-10T10:12:47;21.95;;;13.40;;
21802;SDS011;18591;47.080;22.214;2022-12-10T10:14:51;18.08;;;11.95;;
21802;SDS011;18591;47.080;22.214;2022-12-10T10:16:59;14.50;;;9.50;;
21802;SDS011;18591;47.080;22.214;2022-12-10T10:19:05;15.88;;;10.10;;
21802;SDS011;18591;47.080;22.214;2022-12-10T10:21:19;15.30;;;9.30;;
21802;SDS011;18591;47.080;22.214;2022-12-10T10:23:23;11.82;;;9.13;;
21802;SDS011;18591;47.080;22.214;2022-12-10T10:25:26;14.85;;;9.05;;
21802;SDS011;18591;47.080;22.214;2022-12-10T10:27:30;17.98;;;9.57;;
21802;SDS011;18591;47.080;22.214;2022-12-10T10:29:34;13.50;;;8.73;;
21802;SDS011;18591;47.080;22.214;2022-12-10T10:31:37;17.48;;;10.50;;
21802;SDS011;18591;47.080;22.214;2022-12-10T10:33:47;17.88;;;9.43;;
21802;SDS011;18591;47.080;22.214;2022-12-10T10:35:55;17.08;;;9.98;;
21802;SDS011;18591;47.080;22.214;2022-12-10T10:38:05;16.58;;;9.68;;
21802;SDS011;18591;47.080;22.214;2022-12-10T10:40:28;16.88;;;9.18;;
21802;SDS011;18591;47.080;22.214;2022-12-10T10:42:37;17.10;;;10.25;;
21802;SDS011;18591;47.080;22.214;2022-12-10T10:44:44;15.00;;;10.18;;
21802;SDS011;18591;47.080;22.214;2022-12-10T10:46:47;11.80;;;8.85;;
21802;SDS011;18591;47.080;22.214;2022-12-10T10:48:52;13.68;;;8.60;;
21802;SDS011;18591;47.080;22.214;2022-12-10T10:51:21;14.05;;;8.85;;
21802;SDS011;18591;47.080;22.214;2022-12-10T10:55:32;16.13;;;8.40;;
21802;SDS011;18591;47.080;22.214;2022-12-10T10:57:37;13.05;;;8.50;;
21802;SDS011;18591;47.080;22.214;2022-12-10T10:59:39;12.68;;;7.65;;
21802;SDS011;18591;47.080;22.214;2022-12-10T11:03:55;12.32;;;7.00;;
21802;SDS011;18591;47.080;22.214;2022-12-10T11:05:59;14.13;;;7.88;;
21802;SDS011;18591;47.080;22.214;2022-12-10T11:08:03;15.35;;;8.55;;
21802;SDS011;18591;47.080;22.214;2022-12-10T11:10:18;14.65;;;9.10;;
21802;SDS011;18591;47.080;22.214;2022-12-10T11:12:39;14.30;;;9.00;;
21802;SDS011;18591;47.080;22.214;2022-12-10T11:14:44;16.48;;;10.27;;
21802;SDS011;18591;47.080;22.214;2022-12-10T11:16:47;17.73;;;11.07;;
21802;SDS011;18591;47.080;22.214;2022-12-10T11:19:00;17.25;;;11.57;;
21802;SDS011;18591;47.080;22.214;2022-12-10T11:23:15;19.02;;;12.05;;
21802;SDS011;18591;47.080;22.214;2022-12-10T11:25:17;15.55;;;11.05;;
21802;SDS011;18591;47.080;22.214;2022-12-10T11:30:11;17.17;;;11.38;;
21802;SDS011;18591;47.080;22.214;2022-12-10T11:39:26;54.35;;;29.25;;
21802;SDS011;18591;47.080;22.214;2022-12-10T11:41:44;47.65;;;26.58;;
21802;SDS011;18591;47.080;22.214;2022-12-10T11:46:24;28.15;;;18.15;;
21802;SDS011;18591;47.080;22.214;2022-12-10T11:50:52;66.20;;;33.92;;
21802;SDS011;18591;47.080;22.214;2022-12-10T11:53:13;80.25;;;41.55;;
21802;SDS011;18591;47.080;22.214;2022-12-10T11:55:37;47.60;;;26.50;;
21802;SDS011;18591;47.080;22.214;2022-12-10T12:12:44;47.88;;;26.63;;
21802;SDS011;18591;47.080;22.214;2022-12-10T12:15:08;108.85;;;55.45;;
21802;SDS011;18591;47.080;22.214;2022-12-10T12:17:27;94.43;;;53.80;;
21802;SDS011;18591;47.080;22.214;2022-12-10T12:19:36;53.55;;;32.25;;
21802;SDS011;18591;47.080;22.214;2022-12-10T12:21:41;54.15;;;34.72;;
21802;SDS011;18591;47.080;22.214;2022-12-10T12:26:13;73.95;;;44.83;;
21802;SDS011;18591;47.080;22.214;2022-12-10T12:30:32;61.78;;;36.22;;
21802;SDS011;18591;47.080;22.214;2022-12-10T12:32:45;51.13;;;33.30;;
21802;SDS011;18591;47.080;22.214;2022-12-10T12:37:16;52.00;;;35.95;;
21802;SDS011;18591;47.080;22.214;2022-12-10T12:43:47;45.72;;;30.02;;
21802;SDS011;18591;47.080;22.214;2022-12-10T12:45:54;37.60;;;25.13;;
21802;SDS011;18591;47.080;22.214;2022-12-10T12:50:11;28.00;;;18.02;;
21802;SDS011;18591;47.080;22.214;2022-12-10T12:52:37;23.00;;;16.70;;
21802;SDS011;18591;47.080;22.214;2022-12-10T12:54:45;23.27;;;16.38;;
21802;SDS011;18591;47.080;22.214;2022-12-10T12:59:10;24.33;;;16.52;;
21802;SDS011;18591;47.080;22.214;2022-12-10T13:01:25;23.98;;;16.02;;
21802;SDS011;18591;47.080;22.214;2022-12-10T13:03:40;36.13;;;27.10;;
21802;SDS011;18591;47.080;22.214;2022-12-10T13:05:43;55.85;;;35.13;;
21802;SDS011;18591;47.080;22.214;2022-12-10T13:08:14;93.20;;;54.75;;
21802;SDS011;18591;47.080;22.214;2022-12-10T13:10:28;61.13;;;37.33;;
21802;SDS011;18591;47.080;22.214;2022-12-10T13:12:30;34.53;;;23.02;;
21802;SDS011;18591;47.080;22.214;2022-12-10T13:16:58;36.55;;;22.75;;
21802;SDS011;18591;47.080;22.214;2022-12-10T13:19:27;33.65;;;20.38;;
21802;SDS011;18591;47.080;22.214;2022-12-10T13:21:30;48.30;;;30.35;;
21802;SDS011;18591;47.080;22.214;2022-12-10T13:23:33;65.03;;;40.50;;
21802;SDS011;18591;47.080;22.214;2022-12-10T13:25:55;89.82;;;49.80;;
21802;SDS011;18591;47.080;22.214;2022-12-10T13:27:59;61.83;;;38.17;;
21802;SDS011;18591;47.080;22.214;2022-12-10T13:30:32;60.95;;;37.70;;
21802;SDS011;18591;47.080;22.214;2022-12-10T13:34:40;103.68;;;68.05;;
21802;SDS011;18591;47.080;22.214;2022-12-10T13:39:02;73.57;;;48.92;;
21802;SDS011;18591;47.080;22.214;2022-12-10T13:41:13;36.10;;;20.73;;
21802;SDS011;18591;47.080;22.214;2022-12-10T13:46:19;83.85;;;51.50;;